createdAt,value
2018-12-11T00:01:40.375Z,3.27
2018-12-11T00:04:07.563Z,3.25
2018-12-11T00:06:34.760Z,4.20
2018-12-11T00:09:02.145Z,3.40
2018-12-11T00:11:33.915Z,4.20
2018-12-11T00:13:58.648Z,4.00
2018-12-11T00:16:25.837Z,4.20
2018-12-11T00:18:53.124Z,3.75
2018-12-11T00:21:20.324Z,3.45
2018-12-11T00:23:47.597Z,4.12
2018-12-11T00:26:14.897Z,3.70
2018-12-11T00:28:42.092Z,3.67
2018-12-11T00:31:09.320Z,4.03
2018-12-11T00:33:36.512Z,3.45
2018-12-11T00:36:03.922Z,3.27
2018-12-11T00:38:31.117Z,3.42
2018-12-11T00:40:58.304Z,4.20
2018-12-11T00:43:25.501Z,4.28
2018-12-11T00:45:52.689Z,3.58
2018-12-11T00:48:19.881Z,4.22
2018-12-11T00:50:47.076Z,3.85
2018-12-11T00:53:14.285Z,3.60
2018-12-11T00:55:41.470Z,3.80
2018-12-11T00:58:08.789Z,3.92
2018-12-11T01:00:35.984Z,3.60
2018-12-11T01:03:03.180Z,3.52
2018-12-11T01:05:30.497Z,3.47
2018-12-11T01:07:57.898Z,2.92
2018-12-11T01:10:25.213Z,3.75
2018-12-11T01:12:52.521Z,3.33
2018-12-11T01:15:19.840Z,3.77
2018-12-11T01:17:47.029Z,3.35
2018-12-11T01:20:14.234Z,3.20
2018-12-11T01:22:41.567Z,3.83
2018-12-11T01:25:08.901Z,4.08
2018-12-11T01:27:36.116Z,2.87
2018-12-11T01:30:03.661Z,3.80
2018-12-11T01:32:30.866Z,4.25
2018-12-11T01:34:58.180Z,2.98
2018-12-11T01:37:25.360Z,3.15
2018-12-11T01:39:52.556Z,3.47
2018-12-11T01:42:19.740Z,3.35
2018-12-11T01:44:46.939Z,3.33
2018-12-11T01:47:14.127Z,3.42
2018-12-11T01:49:41.329Z,3.52
2018-12-11T01:52:08.516Z,2.85
2018-12-11T01:54:35.837Z,3.67
2018-12-11T01:57:03.137Z,2.77
2018-12-11T01:59:30.356Z,4.35
2018-12-11T02:01:57.780Z,3.37
2018-12-11T02:04:24.955Z,2.67
2018-12-11T02:06:52.276Z,3.92
2018-12-11T02:09:19.476Z,2.95
2018-12-11T02:11:46.664Z,3.90
2018-12-11T02:14:13.869Z,3.37
2018-12-11T02:16:41.076Z,3.35
2018-12-11T02:19:08.273Z,3.40
2018-12-11T02:21:35.481Z,3.10
2018-12-11T02:24:02.669Z,2.47
2018-12-11T02:26:29.903Z,3.20
2018-12-11T02:28:57.089Z,3.30
2018-12-11T02:31:24.529Z,2.77
2018-12-11T02:33:51.737Z,3.33
2018-12-11T02:36:18.946Z,3.40
2018-12-11T02:38:46.365Z,2.90
2018-12-11T02:41:13.579Z,2.98
2018-12-11T02:43:40.854Z,3.30
2018-12-11T02:46:08.040Z,2.55
2018-12-11T02:48:35.223Z,3.05
2018-12-11T02:51:02.463Z,2.85
2018-12-11T02:53:29.677Z,2.55
2018-12-11T02:55:56.895Z,2.65
2018-12-11T02:58:24.208Z,2.52
2018-12-11T03:00:51.428Z,2.47
2018-12-11T03:03:18.642Z,2.90
2018-12-11T03:05:45.885Z,2.62
2018-12-11T03:08:13.108Z,2.47
2018-12-11T03:10:40.330Z,2.85
2018-12-11T03:13:07.575Z,3.22
2018-12-11T03:15:34.798Z,3.22
2018-12-11T03:18:02.039Z,2.45
2018-12-11T03:20:29.256Z,3.62
2018-12-11T03:22:56.488Z,3.20
2018-12-11T03:25:23.683Z,2.80
2018-12-11T03:27:50.899Z,2.47
2018-12-11T03:30:18.105Z,2.47
2018-12-11T03:32:45.332Z,3.87
2018-12-11T03:35:12.545Z,3.05
2018-12-11T03:37:39.777Z,2.55
2018-12-11T03:40:07.238Z,2.60
2018-12-11T03:42:34.476Z,2.83
2018-12-11T03:45:01.711Z,3.40
2018-12-11T03:47:29.049Z,3.00
2018-12-11T03:49:56.273Z,3.02
2018-12-11T03:52:23.474Z,3.70
2018-12-11T03:54:50.670Z,3.20
2018-12-11T03:57:18.046Z,3.22
2018-12-11T03:59:45.222Z,2.92
2018-12-11T04:02:12.439Z,2.90
2018-12-11T04:04:39.641Z,3.37
2018-12-11T04:07:06.827Z,2.90
2018-12-11T04:09:34.020Z,3.17
2018-12-11T04:12:02.084Z,3.27
2018-12-11T04:14:29.615Z,3.60
2018-12-11T04:16:56.800Z,3.90
2018-12-11T04:19:23.999Z,3.15
2018-12-11T04:21:51.272Z,4.00
2018-12-11T04:24:18.497Z,3.45
2018-12-11T04:26:45.790Z,3.12
2018-12-11T04:29:13.095Z,3.72
2018-12-11T04:31:40.276Z,3.20
2018-12-11T04:34:07.552Z,3.75
2018-12-11T04:36:34.796Z,2.83
2018-12-11T04:39:02.127Z,3.42
2018-12-11T04:41:29.639Z,3.62
2018-12-11T04:43:56.819Z,3.33
2018-12-11T04:46:24.009Z,3.60
2018-12-11T04:48:51.231Z,3.30
2018-12-11T04:51:18.549Z,3.90
2018-12-11T04:53:45.776Z,3.75
2018-12-11T04:56:13.012Z,3.83
2018-12-11T04:58:40.249Z,3.62
2018-12-11T05:01:07.596Z,3.58
2018-12-11T05:03:34.821Z,3.60
2018-12-11T05:06:02.036Z,3.37
2018-12-11T05:08:29.244Z,3.00
2018-12-11T05:10:56.490Z,3.15
2018-12-11T05:13:23.805Z,3.70
2018-12-11T05:15:50.992Z,3.05
2018-12-11T05:18:18.224Z,3.37
2018-12-11T05:20:45.417Z,3.12
2018-12-11T05:23:12.601Z,3.15
2018-12-11T05:25:39.938Z,3.50
2018-12-11T05:28:07.120Z,2.80
2018-12-11T05:30:34.427Z,3.60
2018-12-11T05:33:01.624Z,2.87
2018-12-11T05:35:28.949Z,2.92
2018-12-11T05:37:56.184Z,2.70
2018-12-11T05:40:23.385Z,3.70
2018-12-11T05:42:50.588Z,2.83
2018-12-11T05:45:17.789Z,3.60
2018-12-11T05:47:45.241Z,3.30
2018-12-11T05:50:12.511Z,2.90
2018-12-11T05:52:39.713Z,3.10
2018-12-11T05:55:07.164Z,3.70
2018-12-11T05:57:34.468Z,3.22
2018-12-11T06:00:01.937Z,3.92
2018-12-11T06:02:29.160Z,2.87
2018-12-11T06:04:56.470Z,3.10
2018-12-11T06:07:23.853Z,2.60
2018-12-11T06:09:51.217Z,3.10
2018-12-11T06:12:18.553Z,3.40
2018-12-11T06:14:45.752Z,3.90
2018-12-11T06:17:13.047Z,2.92
2018-12-11T06:19:40.368Z,2.77
2018-12-11T06:22:07.568Z,3.22
2018-12-11T06:24:34.759Z,3.17
2018-12-11T06:27:02.076Z,3.05
2018-12-11T06:29:29.667Z,3.35
2018-12-11T06:31:56.871Z,3.62
2018-12-11T06:34:24.101Z,3.27
2018-12-11T06:36:51.312Z,3.33
2018-12-11T06:39:18.651Z,3.45
2018-12-11T06:41:45.851Z,3.98
2018-12-11T06:44:13.049Z,3.22
2018-12-11T06:46:40.239Z,3.30
2018-12-11T06:49:07.437Z,3.00
2018-12-11T06:51:34.648Z,3.20
2018-12-11T06:54:01.872Z,3.37
2018-12-11T06:56:29.196Z,2.90
2018-12-11T06:58:56.503Z,2.55
2018-12-11T07:01:23.809Z,2.85
2018-12-11T07:03:51.006Z,3.20
2018-12-11T07:06:18.313Z,2.35
2018-12-11T07:08:45.528Z,4.08
2018-12-11T07:11:12.706Z,3.30
2018-12-11T07:13:39.900Z,3.45
2018-12-11T07:16:07.245Z,3.70
2018-12-11T07:18:34.445Z,3.40
2018-12-11T07:21:01.636Z,4.30
2018-12-11T07:23:28.845Z,2.95
2018-12-11T07:25:56.023Z,4.50
2018-12-11T07:28:23.249Z,3.42
2018-12-11T07:30:50.444Z,3.70
2018-12-11T07:33:17.635Z,3.10
2018-12-11T07:35:44.933Z,3.30
2018-12-11T07:38:12.129Z,2.85
2018-12-11T07:40:39.438Z,2.85
2018-12-11T07:43:06.631Z,3.00
2018-12-11T07:45:33.848Z,3.10
2018-12-11T07:48:01.036Z,2.75
2018-12-11T07:50:28.236Z,3.00
2018-12-11T07:52:55.417Z,3.22
2018-12-11T07:55:22.621Z,3.10
2018-12-11T07:57:49.928Z,2.55
2018-12-11T08:00:17.256Z,2.80
2018-12-11T08:02:44.448Z,3.25
2018-12-11T08:05:11.639Z,2.80
2018-12-11T08:07:38.945Z,3.33
2018-12-11T08:10:06.592Z,2.92
2018-12-11T08:12:33.781Z,3.37
2018-12-11T08:15:00.982Z,2.98
2018-12-11T08:17:28.176Z,3.20
2018-12-11T08:19:55.386Z,3.08
2018-12-11T08:22:22.580Z,2.65
2018-12-11T08:24:49.817Z,3.67
2018-12-11T08:27:17.120Z,2.50
2018-12-11T08:29:44.313Z,2.80
2018-12-11T08:32:11.502Z,2.90
2018-12-11T08:34:38.700Z,2.60
2018-12-11T08:37:05.904Z,2.67
2018-12-11T08:39:33.132Z,3.40
2018-12-11T08:42:00.428Z,3.40
2018-12-11T08:44:27.604Z,3.17
2018-12-11T08:46:54.800Z,2.92
2018-12-11T08:49:22.027Z,3.75
2018-12-11T08:51:49.260Z,3.45
2018-12-11T08:54:16.480Z,2.98
2018-12-11T08:56:43.755Z,3.55
2018-12-11T08:59:11.087Z,3.35
2018-12-11T09:01:38.311Z,3.80
2018-12-11T09:04:05.530Z,2.60
2018-12-11T09:06:32.757Z,3.45
2018-12-11T09:08:59.996Z,3.55
2018-12-11T09:11:27.232Z,3.20
2018-12-11T09:13:54.448Z,3.65
2018-12-11T09:16:21.664Z,3.42
2018-12-11T09:18:48.889Z,4.37
2018-12-11T09:21:16.116Z,3.87
2018-12-11T09:23:43.324Z,3.77
2018-12-11T09:26:10.557Z,5.53
2018-12-11T09:28:37.777Z,3.10
2018-12-11T09:31:05.120Z,2.90
2018-12-11T09:33:32.444Z,3.22
2018-12-11T09:35:59.702Z,3.08
2018-12-11T09:38:27.037Z,2.70
2018-12-11T09:40:54.258Z,3.05
2018-12-11T09:43:21.480Z,3.52
2018-12-11T09:45:48.699Z,3.00
2018-12-11T09:48:16.055Z,3.20
2018-12-11T09:50:43.287Z,3.15
2018-12-11T09:53:10.499Z,3.40
2018-12-11T09:55:37.740Z,3.40
2018-12-11T09:58:04.972Z,3.55
2018-12-11T10:00:32.265Z,3.72
2018-12-11T10:02:59.529Z,3.50
2018-12-11T10:05:26.876Z,3.50
2018-12-11T10:07:54.108Z,3.42
2018-12-11T10:10:21.332Z,3.77
2018-12-11T10:12:48.557Z,3.67
2018-12-11T10:15:15.884Z,3.15
2018-12-11T10:17:43.108Z,3.10
2018-12-11T10:20:10.767Z,3.35
2018-12-11T10:22:38.000Z,3.25
2018-12-11T10:25:05.452Z,3.65
2018-12-11T10:27:32.808Z,2.90
2018-12-11T10:30:00.032Z,3.02
2018-12-11T10:32:27.384Z,2.95
2018-12-11T10:34:54.717Z,3.33
2018-12-11T10:37:21.935Z,2.90
2018-12-11T10:39:49.148Z,4.35
2018-12-11T10:42:16.359Z,4.20
2018-12-11T10:44:43.568Z,3.20
2018-12-11T10:47:10.797Z,3.37
2018-12-11T10:49:38.000Z,3.75
2018-12-11T10:52:05.196Z,3.60
2018-12-11T10:54:32.380Z,4.03
2018-12-11T10:56:59.564Z,3.30
2018-12-11T10:59:26.845Z,3.60
2018-12-11T11:01:54.028Z,3.65
2018-12-11T11:04:22.027Z,3.20
2018-12-11T11:06:49.336Z,4.42
2018-12-11T11:09:16.724Z,3.72
2018-12-11T11:11:43.939Z,4.75
2018-12-11T11:14:11.333Z,3.83
2018-12-11T11:16:38.511Z,3.47
2018-12-11T11:19:05.700Z,3.92
2018-12-11T11:21:32.889Z,3.58
2018-12-11T11:24:00.209Z,3.75
2018-12-11T11:26:27.560Z,3.30
2018-12-11T11:28:54.757Z,3.52
2018-12-11T11:31:22.066Z,3.77
2018-12-11T11:33:49.266Z,3.80
2018-12-11T11:36:16.465Z,3.60
2018-12-11T11:38:43.640Z,3.65
2018-12-11T11:41:10.841Z,3.58
2018-12-11T11:43:38.032Z,4.30
2018-12-11T11:46:05.225Z,3.92
2018-12-11T11:48:32.521Z,4.22
2018-12-11T11:50:59.756Z,3.90
2018-12-11T11:53:27.139Z,3.50
2018-12-11T11:55:54.338Z,3.70
2018-12-11T11:58:21.638Z,3.33
2018-12-11T12:00:48.923Z,3.60
2018-12-11T12:03:16.111Z,3.37
2018-12-11T12:05:43.408Z,3.20
2018-12-11T12:08:10.705Z,2.60
2018-12-11T12:10:37.897Z,3.52
2018-12-11T12:13:05.070Z,3.45
2018-12-11T12:15:32.248Z,3.42
2018-12-11T12:17:59.439Z,3.33
2018-12-11T12:20:26.637Z,4.40
2018-12-11T12:22:53.808Z,3.45
2018-12-11T12:25:21.008Z,3.58
2018-12-11T12:27:48.177Z,3.85
2018-12-11T12:30:15.379Z,3.15
2018-12-11T12:32:42.565Z,3.92
2018-12-11T12:35:09.764Z,4.22
2018-12-11T12:37:37.665Z,4.28
2018-12-11T12:40:05.113Z,3.65
2018-12-11T12:42:32.396Z,3.50
2018-12-11T12:44:59.581Z,3.83
2018-12-11T12:47:26.888Z,3.65
2018-12-11T12:49:54.101Z,3.58
2018-12-11T12:52:21.320Z,4.03
2018-12-11T12:54:48.536Z,3.55
2018-12-11T12:57:15.817Z,3.30
2018-12-11T12:59:43.060Z,4.25
2018-12-11T13:02:10.388Z,3.55
2018-12-11T13:04:37.603Z,3.80
2018-12-11T13:07:05.032Z,3.60
2018-12-11T13:09:32.254Z,3.90
2018-12-11T13:11:59.479Z,4.15
2018-12-11T13:14:26.690Z,4.50
2018-12-11T13:16:53.905Z,3.87
2018-12-11T13:19:21.115Z,4.53
2018-12-11T13:21:48.336Z,4.00
2018-12-11T13:24:15.547Z,3.72
2018-12-11T13:26:42.770Z,3.65
2018-12-11T13:29:09.989Z,3.25
2018-12-11T13:31:37.271Z,3.22
2018-12-11T13:34:04.583Z,3.85
2018-12-11T13:36:32.314Z,4.12
2018-12-11T13:38:59.747Z,3.85
2018-12-11T13:41:27.200Z,3.37
2018-12-11T13:43:54.656Z,3.67
2018-12-11T13:46:21.873Z,3.60
2018-12-11T13:48:49.221Z,4.10
2018-12-11T13:51:16.473Z,3.60
2018-12-11T13:53:43.715Z,4.33
2018-12-11T13:56:10.924Z,3.15
2018-12-11T13:58:38.139Z,3.10
2018-12-11T14:01:06.316Z,3.80
2018-12-11T14:03:33.533Z,3.80
2018-12-11T14:06:00.749Z,3.60
2018-12-11T14:08:27.982Z,3.20
2018-12-11T14:10:55.227Z,4.28
2018-12-11T14:13:22.444Z,3.87
2018-12-11T14:15:49.646Z,3.60
2018-12-11T14:18:16.875Z,3.33
2018-12-11T14:20:44.415Z,3.70
2018-12-11T14:23:11.660Z,3.45
2018-12-11T14:25:38.921Z,3.12
2018-12-11T14:28:06.196Z,3.30
2018-12-11T14:30:33.422Z,3.80
2018-12-11T14:33:00.689Z,3.75
2018-12-11T14:35:27.909Z,3.30
2018-12-11T14:37:55.120Z,3.35
2018-12-11T14:40:22.350Z,3.33
2018-12-11T14:42:49.565Z,3.47
2018-12-11T14:45:16.823Z,3.50
2018-12-11T14:47:44.027Z,4.15
2018-12-11T14:50:11.476Z,4.10
2018-12-11T14:52:38.650Z,3.83
2018-12-11T14:55:06.070Z,3.47
2018-12-11T14:57:33.261Z,3.58
2018-12-11T15:00:00.443Z,3.85
2018-12-11T15:02:27.833Z,3.50
2018-12-11T15:04:55.503Z,3.65
2018-12-11T15:07:23.280Z,3.42
2018-12-11T15:09:51.582Z,4.25
2018-12-11T15:12:18.933Z,4.95
2018-12-11T15:14:46.121Z,3.90
2018-12-11T15:17:13.456Z,3.80
2018-12-11T15:19:40.656Z,3.70
2018-12-11T15:22:07.945Z,3.35
2018-12-11T15:24:35.358Z,5.00
2018-12-11T15:27:02.672Z,4.12
2018-12-11T15:29:29.855Z,3.70
2018-12-11T15:31:57.028Z,3.95
2018-12-11T15:34:24.351Z,4.45
2018-12-11T15:36:51.530Z,3.75
2018-12-11T15:39:18.717Z,4.00
2018-12-11T15:41:45.892Z,4.80
2018-12-11T15:44:13.071Z,4.60
2018-12-11T15:46:40.471Z,4.53
2018-12-11T15:49:07.656Z,5.08
2018-12-11T15:51:35.204Z,4.50
2018-12-11T15:54:02.445Z,4.72
2018-12-11T15:56:29.694Z,4.42
2018-12-11T15:58:56.986Z,4.37
2018-12-11T16:01:24.336Z,4.50
2018-12-11T16:03:51.669Z,5.00
2018-12-11T16:06:18.895Z,5.30
2018-12-11T16:08:46.140Z,4.10
2018-12-11T16:11:13.351Z,5.25
2018-12-11T16:13:40.596Z,4.37
2018-12-11T16:16:07.852Z,4.05
2018-12-11T16:18:35.054Z,4.15
2018-12-11T16:21:02.271Z,4.33
2018-12-11T16:23:29.476Z,4.60
2018-12-11T16:25:56.694Z,4.37
2018-12-11T16:28:23.908Z,3.65
2018-12-11T16:30:51.145Z,3.85
2018-12-11T16:33:18.362Z,3.90
2018-12-11T16:35:45.605Z,4.25
2018-12-11T16:38:12.948Z,4.40
2018-12-11T16:40:40.180Z,4.80
2018-12-11T16:43:07.424Z,4.15
2018-12-11T16:45:34.630Z,4.97
2018-12-11T16:48:01.968Z,4.90
2018-12-11T16:50:29.373Z,5.25
2018-12-11T16:52:56.784Z,5.00
2018-12-11T16:55:23.967Z,4.60
2018-12-11T16:57:51.143Z,4.53
2018-12-11T17:00:18.316Z,4.70
2018-12-11T17:02:45.607Z,5.35
2018-12-11T17:05:13.047Z,4.97
2018-12-11T17:07:40.240Z,5.35
2018-12-11T17:10:07.720Z,5.00
2018-12-11T17:12:35.000Z,4.90
2018-12-11T17:15:02.560Z,4.65
2018-12-11T17:17:30.183Z,5.08
2018-12-11T17:19:59.104Z,4.80
2018-12-11T17:22:26.296Z,4.53
2018-12-11T17:24:53.613Z,4.37
2018-12-11T17:27:20.913Z,4.45
2018-12-11T17:29:48.255Z,4.00
2018-12-11T17:32:15.508Z,3.87
2018-12-11T17:34:42.687Z,4.20
2018-12-11T17:37:10.068Z,4.28
2018-12-11T17:39:37.577Z,4.17
2018-12-11T17:42:04.920Z,4.65
2018-12-11T17:44:32.180Z,4.28
2018-12-11T17:46:59.355Z,4.55
2018-12-11T17:49:26.589Z,4.00
2018-12-11T17:51:53.836Z,4.35
2018-12-11T17:54:21.899Z,4.75
2018-12-11T17:56:49.315Z,4.60
2018-12-11T17:59:17.348Z,3.60
2018-12-11T18:01:48.719Z,4.30
2018-12-11T18:04:15.929Z,4.85
2018-12-11T18:06:43.127Z,4.58
2018-12-11T18:09:10.303Z,4.25
2018-12-11T18:11:37.539Z,5.08
2018-12-11T18:14:04.740Z,4.47
2018-12-11T18:16:31.940Z,3.98
2018-12-11T18:18:59.168Z,4.55
2018-12-11T18:21:26.347Z,5.45
2018-12-11T18:23:53.553Z,4.85
2018-12-11T18:26:20.753Z,4.80
2018-12-11T18:28:47.977Z,5.20
2018-12-11T18:31:15.186Z,6.35
2018-12-11T18:33:42.449Z,4.90
2018-12-11T18:36:09.640Z,4.70
2018-12-11T18:38:36.877Z,5.95
2018-12-11T18:41:04.264Z,4.87
2018-12-11T18:43:31.448Z,5.40
2018-12-11T18:45:58.857Z,7.17
2018-12-11T18:48:26.375Z,5.12
2018-12-11T18:50:53.643Z,5.85
2018-12-11T18:53:20.878Z,5.00
2018-12-11T18:55:48.191Z,5.05
2018-12-11T18:58:15.501Z,5.25
2018-12-11T19:00:43.022Z,5.00
2018-12-11T19:03:11.561Z,5.35
2018-12-11T19:05:38.921Z,5.58
2018-12-11T19:08:06.260Z,4.42
2018-12-11T19:10:33.707Z,5.72
2018-12-11T19:13:01.030Z,4.90
2018-12-11T19:15:28.264Z,5.22
2018-12-11T19:17:55.672Z,5.05
2018-12-11T19:20:23.645Z,5.00
2018-12-11T19:22:50.918Z,5.92
2018-12-11T19:25:19.453Z,4.85
2018-12-11T19:27:46.663Z,5.03
2018-12-11T19:30:13.996Z,5.50
2018-12-11T19:32:41.180Z,4.80
2018-12-11T19:35:08.596Z,6.03
2018-12-11T19:37:35.785Z,5.28
2018-12-11T19:40:03.888Z,5.85
2018-12-11T19:42:31.089Z,5.78
2018-12-11T19:44:58.412Z,6.05
2018-12-11T19:47:25.628Z,6.55
2018-12-11T19:49:52.892Z,5.28
2018-12-11T19:52:20.075Z,5.75
2018-12-11T19:54:47.379Z,5.85
2018-12-11T19:57:14.569Z,5.97
2018-12-11T19:59:41.854Z,6.10
2018-12-11T20:02:09.176Z,6.60
2018-12-11T20:04:36.377Z,5.62
2018-12-11T20:07:03.570Z,6.10
2018-12-11T20:09:30.776Z,5.10
2018-12-11T20:11:57.982Z,6.25
2018-12-11T20:14:25.204Z,5.72
2018-12-11T20:16:52.535Z,6.10
2018-12-11T20:19:19.751Z,5.50
2018-12-11T20:21:46.955Z,5.80
2018-12-11T20:24:14.148Z,5.45
2018-12-11T20:26:41.347Z,6.30
2018-12-11T20:29:08.528Z,5.80
2018-12-11T20:31:35.744Z,6.20
2018-12-11T20:34:03.063Z,6.65
2018-12-11T20:36:30.252Z,6.97
2018-12-11T20:38:57.559Z,7.03
2018-12-11T20:41:24.847Z,6.87
2018-12-11T20:43:52.036Z,6.20
2018-12-11T20:46:19.219Z,6.50
2018-12-11T20:48:46.855Z,7.62
2018-12-11T20:51:14.088Z,7.30
2018-12-11T20:53:41.377Z,7.08
2018-12-11T20:56:08.667Z,6.85
2018-12-11T20:58:35.908Z,7.03
2018-12-11T21:01:03.916Z,7.47
2018-12-11T21:03:31.221Z,7.40
2018-12-11T21:05:58.433Z,7.65
2018-12-11T21:08:27.312Z,6.80
2018-12-11T21:10:54.606Z,7.40
2018-12-11T21:13:21.844Z,7.50
2018-12-11T21:15:49.132Z,8.20
2018-12-11T21:18:16.361Z,7.55
2018-12-11T21:20:43.581Z,7.80
2018-12-11T21:23:10.805Z,8.55
2018-12-11T21:25:38.021Z,8.05
2018-12-11T21:28:05.236Z,8.30
2018-12-11T21:30:32.552Z,8.53
2018-12-11T21:32:59.935Z,7.40
2018-12-11T21:35:27.145Z,7.70
2018-12-11T21:37:54.900Z,7.60
2018-12-11T21:40:22.164Z,7.80
2018-12-11T21:42:49.376Z,7.30
2018-12-11T21:45:16.595Z,7.30
2018-12-11T21:47:43.903Z,7.80
2018-12-11T21:50:11.256Z,7.55
2018-12-11T21:52:38.783Z,8.20
2018-12-11T21:55:06.608Z,7.30
2018-12-11T21:57:34.047Z,7.75
2018-12-11T22:00:01.514Z,7.30
2018-12-11T22:02:28.744Z,7.85
2018-12-11T22:04:56.010Z,7.45
2018-12-11T22:07:23.215Z,8.40
2018-12-11T22:09:50.399Z,8.78
2018-12-11T22:12:18.603Z,9.65
2018-12-11T22:14:45.805Z,7.65
2018-12-11T22:17:13.061Z,7.30
2018-12-11T22:19:40.431Z,7.20
2018-12-11T22:22:07.949Z,8.55
2018-12-11T22:24:35.132Z,8.63
2018-12-11T22:27:02.429Z,7.75
2018-12-11T22:29:29.628Z,8.25
2018-12-11T22:31:56.813Z,8.75
2018-12-11T22:34:24.184Z,7.90
2018-12-11T22:36:51.408Z,8.75
2018-12-11T22:39:18.836Z,10.38
2018-12-11T22:41:46.188Z,8.95
2018-12-11T22:44:13.660Z,8.53
2018-12-11T22:46:41.047Z,9.60
2018-12-11T22:49:08.384Z,8.70
2018-12-11T22:51:35.968Z,7.97
2018-12-11T22:54:03.791Z,9.20
2018-12-11T22:56:30.973Z,7.25
2018-12-11T22:58:58.204Z,8.53
2018-12-11T23:01:25.621Z,8.40
2018-12-11T23:03:52.940Z,8.13
2018-12-11T23:06:20.426Z,8.60
2018-12-11T23:08:47.889Z,8.05
2018-12-11T23:11:15.199Z,8.88
2018-12-11T23:13:42.408Z,8.20
2018-12-11T23:16:09.613Z,9.63
2018-12-11T23:18:36.792Z,9.45
2018-12-11T23:21:04.120Z,8.33
2018-12-11T23:23:31.332Z,8.95
2018-12-11T23:25:58.700Z,8.30
2018-12-11T23:28:25.878Z,8.95
2018-12-11T23:30:53.188Z,7.90
2018-12-11T23:33:20.549Z,8.30
2018-12-11T23:35:47.965Z,8.40
2018-12-11T23:38:15.175Z,8.50
2018-12-11T23:40:42.428Z,9.03
2018-12-11T23:43:09.700Z,9.70
2018-12-11T23:45:36.996Z,8.93
2018-12-11T23:48:04.180Z,10.25
2018-12-11T23:50:31.448Z,10.03
2018-12-11T23:52:58.776Z,9.93
2018-12-11T23:55:26.040Z,11.30
2018-12-11T23:57:53.264Z,10.38
